sensor_id;sensor_type;location;lat;lon;timestamp;pressure;altitude;pressure_sealevel;temperature
79488;BMP180;68949;53.176;18.088;2023-06-22T00:01:20;100798.40;;;
79488;BMP180;68949;53.176;18.088;2023-06-22T00:03:48;100797.80;;;
79488;BMP180;68949;53.176;18.088;2023-06-22T00:06:14;100798.80;;;
79488;BMP180;68949;53.176;18.088;2023-06-22T00:08:41;100802.20;;;
79488;BMP180;68949;53.176;18.088;2023-06-22T00:11:08;100807.60;;;
79488;BMP180;68949;53.176;18.088;2023-06-22T00:13:35;100816.20;;;
79488;BMP180;68949;53.176;18.088;2023-06-22T00:16:01;100816.40;;;
79488;BMP180;68949;53.176;18.088;2023-06-22T00:18:28;100821.40;;;
79488;BMP180;68949;53.176;18.088;2023-06-22T00:20:57;100823.00;;;
79488;BMP180;68949;53.176;18.088;2023-06-22T00:23:25;100820.00;;;
79488;BMP180;68949;53.176;18.088;2023-06-22T00:25:52;100820.40;;;
79488;BMP180;68949;53.176;18.088;2023-06-22T00:28:19;100822.80;;;
79488;BMP180;68949;53.176;18.088;2023-06-22T00:30:46;100815.00;;;
79488;BMP180;68949;53.176;18.088;2023-06-22T00:33:14;100823.60;;;
79488;BMP180;68949;53.176;18.088;2023-06-22T00:35:42;100823.80;;;
79488;BMP180;68949;53.176;18.088;2023-06-22T00:38:09;100825.60;;;
79488;BMP180;68949;53.176;18.088;2023-06-22T00:40:36;100827.00;;;
79488;BMP180;68949;53.176;18.088;2023-06-22T00:43:03;100825.20;;;
79488;BMP180;68949;53.176;18.088;2023-06-22T00:45:31;100830.00;;;
79488;BMP180;68949;53.176;18.088;2023-06-22T00:47:59;100832.20;;;
79488;BMP180;68949;53.176;18.088;2023-06-22T00:50:29;100831.60;;;
79488;BMP180;68949;53.176;18.088;2023-06-22T00:53:04;100833.00;;;
79488;BMP180;68949;53.176;18.088;2023-06-22T00:55:42;100834.20;;;
79488;BMP180;68949;53.176;18.088;2023-06-22T00:58:11;100836.80;;;
79488;BMP180;68949;53.176;18.088;2023-06-22T01:00:40;100833.80;;;
79488;BMP180;68949;53.176;18.088;2023-06-22T01:03:08;100834.80;;;
79488;BMP180;68949;53.176;18.088;2023-06-22T01:05:36;100834.60;;;
79488;BMP180;68949;53.176;18.088;2023-06-22T01:08:38;100830.60;;;
79488;BMP180;68949;53.176;18.088;2023-06-22T01:11:21;100833.60;;;
79488;BMP180;68949;53.176;18.088;2023-06-22T01:17:02;100825.80;;;
79488;BMP180;68949;53.176;18.088;2023-06-22T01:19:44;100827.60;;;
79488;BMP180;68949;53.176;18.088;2023-06-22T01:22:26;100822.40;;;
79488;BMP180;68949;53.176;18.088;2023-06-22T01:25:13;100825.80;;;
79488;BMP180;68949;53.176;18.088;2023-06-22T01:28:16;100823.80;;;
79488;BMP180;68949;53.176;18.088;2023-06-22T01:30:49;100828.40;;;
79488;BMP180;68949;53.176;18.088;2023-06-22T01:33:22;100826.20;;;
79488;BMP180;68949;53.176;18.088;2023-06-22T01:35:52;100821.00;;;
79488;BMP180;68949;53.176;18.088;2023-06-22T01:38:19;100823.20;;;
79488;BMP180;68949;53.176;18.088;2023-06-22T01:40:47;100821.80;;;
79488;BMP180;68949;53.176;18.088;2023-06-22T01:43:14;100818.60;;;
79488;BMP180;68949;53.176;18.088;2023-06-22T01:45:42;100812.40;;;
79488;BMP180;68949;53.176;18.088;2023-06-22T01:48:09;100809.00;;;
79488;BMP180;68949;53.176;18.088;2023-06-22T01:50:36;100809.40;;;
79488;BMP180;68949;53.176;18.088;2023-06-22T01:53:03;100807.40;;;
79488;BMP180;68949;53.176;18.088;2023-06-22T01:55:30;100810.00;;;
79488;BMP180;68949;53.176;18.088;2023-06-22T01:57:56;100812.80;;;
79488;BMP180;68949;53.176;18.088;2023-06-22T02:00:25;100812.20;;;
79488;BMP180;68949;53.176;18.088;2023-06-22T02:03:11;100806.00;;;
79488;BMP180;68949;53.176;18.088;2023-06-22T02:05:52;100817.20;;;
79488;BMP180;68949;53.176;18.088;2023-06-22T02:08:30;100813.20;;;
79488;BMP180;68949;53.176;18.088;2023-06-22T02:11:02;100819.40;;;
79488;BMP180;68949;53.176;18.088;2023-06-22T02:13:30;100815.20;;;
79488;BMP180;68949;53.176;18.088;2023-06-22T02:15:57;100821.20;;;
79488;BMP180;68949;53.176;18.088;2023-06-22T02:18:24;100824.40;;;
79488;BMP180;68949;53.176;18.088;2023-06-22T02:20:51;100821.60;;;
79488;BMP180;68949;53.176;18.088;2023-06-22T02:23:19;100829.20;;;
79488;BMP180;68949;53.176;18.088;2023-06-22T02:25:46;100832.20;;;
79488;BMP180;68949;53.176;18.088;2023-06-22T02:28:12;100845.20;;;
79488;BMP180;68949;53.176;18.088;2023-06-22T02:30:39;100840.80;;;
79488;BMP180;68949;53.176;18.088;2023-06-22T02:33:07;100846.60;;;
79488;BMP180;68949;53.176;18.088;2023-06-22T02:35:34;100852.20;;;
79488;BMP180;68949;53.176;18.088;2023-06-22T02:38:03;100850.00;;;
79488;BMP180;68949;53.176;18.088;2023-06-22T02:40:31;100848.00;;;
79488;BMP180;68949;53.176;18.088;2023-06-22T02:42:58;100853.80;;;
79488;BMP180;68949;53.176;18.088;2023-06-22T02:45:29;100851.40;;;
79488;BMP180;68949;53.176;18.088;2023-06-22T02:47:56;100851.20;;;
79488;BMP180;68949;53.176;18.088;2023-06-22T02:50:23;100852.60;;;
79488;BMP180;68949;53.176;18.088;2023-06-22T02:52:50;100852.60;;;
79488;BMP180;68949;53.176;18.088;2023-06-22T02:55:17;100847.60;;;
79488;BMP180;68949;53.176;18.088;2023-06-22T02:57:48;100843.60;;;
79488;BMP180;68949;53.176;18.088;2023-06-22T03:00:19;100833.00;;;
79488;BMP180;68949;53.176;18.088;2023-06-22T03:02:48;100826.00;;;
79488;BMP180;68949;53.176;18.088;2023-06-22T03:05:16;100818.80;;;
79488;BMP180;68949;53.176;18.088;2023-06-22T03:07:45;100809.00;;;
79488;BMP180;68949;53.176;18.088;2023-06-22T03:10:14;100813.00;;;
79488;BMP180;68949;53.176;18.088;2023-06-22T03:12:42;100809.60;;;
79488;BMP180;68949;53.176;18.088;2023-06-22T03:15:11;100803.40;;;
79488;BMP180;68949;53.176;18.088;2023-06-22T03:17:40;100812.60;;;
79488;BMP180;68949;53.176;18.088;2023-06-22T03:20:09;100814.40;;;
79488;BMP180;68949;53.176;18.088;2023-06-22T03:22:40;100816.00;;;
79488;BMP180;68949;53.176;18.088;2023-06-22T03:25:10;100816.80;;;
79488;BMP180;68949;53.176;18.088;2023-06-22T03:27:39;100830.60;;;
79488;BMP180;68949;53.176;18.088;2023-06-22T03:30:10;100823.20;;;
79488;BMP180;68949;53.176;18.088;2023-06-22T03:32:37;100828.20;;;
79488;BMP180;68949;53.176;18.088;2023-06-22T03:35:06;100827.20;;;
79488;BMP180;68949;53.176;18.088;2023-06-22T03:37:35;100827.20;;;
79488;BMP180;68949;53.176;18.088;2023-06-22T03:40:07;100832.40;;;
79488;BMP180;68949;53.176;18.088;2023-06-22T03:42:35;100820.20;;;
79488;BMP180;68949;53.176;18.088;2023-06-22T03:45:05;100824.80;;;
79488;BMP180;68949;53.176;18.088;2023-06-22T03:47:32;100827.40;;;
79488;BMP180;68949;53.176;18.088;2023-06-22T03:50:00;100838.00;;;
79488;BMP180;68949;53.176;18.088;2023-06-22T03:52:27;100845.40;;;
79488;BMP180;68949;53.176;18.088;2023-06-22T03:54:53;100842.40;;;
79488;BMP180;68949;53.176;18.088;2023-06-22T03:57:20;100852.60;;;
79488;BMP180;68949;53.176;18.088;2023-06-22T03:59:47;100855.40;;;
79488;BMP180;68949;53.176;18.088;2023-06-22T04:02:13;100842.20;;;
79488;BMP180;68949;53.176;18.088;2023-06-22T04:04:40;100846.20;;;
79488;BMP180;68949;53.176;18.088;2023-06-22T04:07:07;100838.00;;;
79488;BMP180;68949;53.176;18.088;2023-06-22T04:09:34;100841.20;;;
79488;BMP180;68949;53.176;18.088;2023-06-22T04:12:02;100840.40;;;
79488;BMP180;68949;53.176;18.088;2023-06-22T04:14:29;100827.20;;;
79488;BMP180;68949;53.176;18.088;2023-06-22T04:16:55;100825.20;;;
79488;BMP180;68949;53.176;18.088;2023-06-22T04:19:22;100831.00;;;
79488;BMP180;68949;53.176;18.088;2023-06-22T04:21:49;100836.60;;;
79488;BMP180;68949;53.176;18.088;2023-06-22T04:24:16;100841.20;;;
79488;BMP180;68949;53.176;18.088;2023-06-22T04:26:43;100839.40;;;
79488;BMP180;68949;53.176;18.088;2023-06-22T04:29:12;100833.60;;;
79488;BMP180;68949;53.176;18.088;2023-06-22T04:31:39;100841.60;;;
79488;BMP180;68949;53.176;18.088;2023-06-22T04:34:07;100831.00;;;
79488;BMP180;68949;53.176;18.088;2023-06-22T04:36:36;100828.40;;;
79488;BMP180;68949;53.176;18.088;2023-06-22T04:39:10;100825.20;;;
79488;BMP180;68949;53.176;18.088;2023-06-22T04:41:39;100828.40;;;
79488;BMP180;68949;53.176;18.088;2023-06-22T04:44:16;100827.40;;;
79488;BMP180;68949;53.176;18.088;2023-06-22T04:46:57;100826.00;;;
79488;BMP180;68949;53.176;18.088;2023-06-22T04:49:28;100824.40;;;
79488;BMP180;68949;53.176;18.088;2023-06-22T04:52:01;100827.80;;;
79488;BMP180;68949;53.176;18.088;2023-06-22T04:54:28;100838.00;;;
79488;BMP180;68949;53.176;18.088;2023-06-22T04:56:54;100824.80;;;
79488;BMP180;68949;53.176;18.088;2023-06-22T04:59:26;100829.80;;;
79488;BMP180;68949;53.176;18.088;2023-06-22T05:01:58;100831.00;;;
79488;BMP180;68949;53.176;18.088;2023-06-22T05:04:27;100837.80;;;
79488;BMP180;68949;53.176;18.088;2023-06-22T05:06:54;100842.00;;;
79488;BMP180;68949;53.176;18.088;2023-06-22T05:09:21;100844.40;;;
79488;BMP180;68949;53.176;18.088;2023-06-22T05:11:49;100847.20;;;
79488;BMP180;68949;53.176;18.088;2023-06-22T05:14:16;100844.00;;;
79488;BMP180;68949;53.176;18.088;2023-06-22T05:16:44;100854.00;;;
79488;BMP180;68949;53.176;18.088;2023-06-22T05:19:12;100864.00;;;
79488;BMP180;68949;53.176;18.088;2023-06-22T05:21:38;100862.60;;;
79488;BMP180;68949;53.176;18.088;2023-06-22T05:24:05;100860.80;;;
79488;BMP180;68949;53.176;18.088;2023-06-22T05:26:34;100856.80;;;
79488;BMP180;68949;53.176;18.088;2023-06-22T05:29:02;100855.80;;;
79488;BMP180;68949;53.176;18.088;2023-06-22T05:31:30;100859.20;;;
79488;BMP180;68949;53.176;18.088;2023-06-22T05:33:56;100858.00;;;
79488;BMP180;68949;53.176;18.088;2023-06-22T05:36:23;100855.40;;;
79488;BMP180;68949;53.176;18.088;2023-06-22T05:38:52;100866.40;;;
79488;BMP180;68949;53.176;18.088;2023-06-22T05:41:19;100850.40;;;
79488;BMP180;68949;53.176;18.088;2023-06-22T05:43:46;100855.60;;;
79488;BMP180;68949;53.176;18.088;2023-06-22T05:46:13;100861.60;;;
79488;BMP180;68949;53.176;18.088;2023-06-22T05:48:40;100866.20;;;
79488;BMP180;68949;53.176;18.088;2023-06-22T05:51:07;100858.00;;;
79488;BMP180;68949;53.176;18.088;2023-06-22T05:53:33;100851.80;;;
79488;BMP180;68949;53.176;18.088;2023-06-22T05:56:00;100844.40;;;
79488;BMP180;68949;53.176;18.088;2023-06-22T05:58:27;100846.00;;;
79488;BMP180;68949;53.176;18.088;2023-06-22T06:00:54;100855.60;;;
79488;BMP180;68949;53.176;18.088;2023-06-22T06:03:20;100844.80;;;
79488;BMP180;68949;53.176;18.088;2023-06-22T06:05:47;100849.20;;;
79488;BMP180;68949;53.176;18.088;2023-06-22T06:08:14;100839.60;;;
79488;BMP180;68949;53.176;18.088;2023-06-22T06:10:41;100842.80;;;
79488;BMP180;68949;53.176;18.088;2023-06-22T06:13:07;100839.60;;;
79488;BMP180;68949;53.176;18.088;2023-06-22T06:15:35;100848.60;;;
79488;BMP180;68949;53.176;18.088;2023-06-22T06:18:01;100834.60;;;
79488;BMP180;68949;53.176;18.088;2023-06-22T06:20:31;100831.40;;;
79488;BMP180;68949;53.176;18.088;2023-06-22T06:22:58;100828.80;;;
79488;BMP180;68949;53.176;18.088;2023-06-22T06:25:25;100812.80;;;
79488;BMP180;68949;53.176;18.088;2023-06-22T06:27:53;100819.00;;;
79488;BMP180;68949;53.176;18.088;2023-06-22T06:30:21;100833.80;;;
79488;BMP180;68949;53.176;18.088;2023-06-22T06:32:50;100822.20;;;
79488;BMP180;68949;53.176;18.088;2023-06-22T06:35:17;100830.40;;;
79488;BMP180;68949;53.176;18.088;2023-06-22T06:37:49;100843.80;;;
79488;BMP180;68949;53.176;18.088;2023-06-22T06:40:18;100828.40;;;
79488;BMP180;68949;53.176;18.088;2023-06-22T06:42:47;100836.60;;;
79488;BMP180;68949;53.176;18.088;2023-06-22T06:45:22;100842.80;;;
79488;BMP180;68949;53.176;18.088;2023-06-22T06:47:51;100828.00;;;
79488;BMP180;68949;53.176;18.088;2023-06-22T06:50:19;100816.00;;;
79488;BMP180;68949;53.176;18.088;2023-06-22T06:52:45;100821.60;;;
79488;BMP180;68949;53.176;18.088;2023-06-22T06:55:12;100809.20;;;
79488;BMP180;68949;53.176;18.088;2023-06-22T06:57:41;100814.20;;;
79488;BMP180;68949;53.176;18.088;2023-06-22T07:00:12;100820.60;;;
79488;BMP180;68949;53.176;18.088;2023-06-22T07:02:43;100808.20;;;
79488;BMP180;68949;53.176;18.088;2023-06-22T07:05:11;100812.00;;;
79488;BMP180;68949;53.176;18.088;2023-06-22T07:07:38;100806.00;;;
79488;BMP180;68949;53.176;18.088;2023-06-22T07:10:06;100810.20;;;
79488;BMP180;68949;53.176;18.088;2023-06-22T07:12:33;100808.60;;;
79488;BMP180;68949;53.176;18.088;2023-06-22T07:15:06;100804.00;;;
79488;BMP180;68949;53.176;18.088;2023-06-22T07:17:37;100820.20;;;
79488;BMP180;68949;53.176;18.088;2023-06-22T07:20:05;100820.80;;;
79488;BMP180;68949;53.176;18.088;2023-06-22T07:22:44;100820.80;;;
79488;BMP180;68949;53.176;18.088;2023-06-22T07:25:13;100813.60;;;
79488;BMP180;68949;53.176;18.088;2023-06-22T07:28:05;100820.60;;;
79488;BMP180;68949;53.176;18.088;2023-06-22T07:30:33;100807.40;;;
79488;BMP180;68949;53.176;18.088;2023-06-22T07:33:01;100803.60;;;
79488;BMP180;68949;53.176;18.088;2023-06-22T07:35:34;100812.80;;;
79488;BMP180;68949;53.176;18.088;2023-06-22T07:38:01;100812.20;;;
79488;BMP180;68949;53.176;18.088;2023-06-22T07:40:27;100814.40;;;
79488;BMP180;68949;53.176;18.088;2023-06-22T07:42:54;100816.80;;;
79488;BMP180;68949;53.176;18.088;2023-06-22T07:45:21;100816.80;;;
79488;BMP180;68949;53.176;18.088;2023-06-22T07:47:47;100825.40;;;
79488;BMP180;68949;53.176;18.088;2023-06-22T07:50:14;100823.80;;;
79488;BMP180;68949;53.176;18.088;2023-06-22T07:52:41;100828.40;;;
79488;BMP180;68949;53.176;18.088;2023-06-22T07:55:08;100827.60;;;
79488;BMP180;68949;53.176;18.088;2023-06-22T07:57:34;100831.40;;;
79488;BMP180;68949;53.176;18.088;2023-06-22T08:00:05;100836.00;;;
79488;BMP180;68949;53.176;18.088;2023-06-22T08:02:45;100825.40;;;
79488;BMP180;68949;53.176;18.088;2023-06-22T08:05:15;100811.60;;;
79488;BMP180;68949;53.176;18.088;2023-06-22T08:07:41;100808.20;;;
79488;BMP180;68949;53.176;18.088;2023-06-22T08:10:12;100811.00;;;
79488;BMP180;68949;53.176;18.088;2023-06-22T08:12:42;100814.00;;;
79488;BMP180;68949;53.176;18.088;2023-06-22T08:15:09;100818.20;;;
79488;BMP180;68949;53.176;18.088;2023-06-22T08:17:38;100822.80;;;
79488;BMP180;68949;53.176;18.088;2023-06-22T08:20:07;100827.40;;;
79488;BMP180;68949;53.176;18.088;2023-06-22T08:22:43;100814.80;;;
79488;BMP180;68949;53.176;18.088;2023-06-22T08:25:11;100821.40;;;
79488;BMP180;68949;53.176;18.088;2023-06-22T08:27:38;100830.80;;;
79488;BMP180;68949;53.176;18.088;2023-06-22T08:30:07;100831.00;;;
79488;BMP180;68949;53.176;18.088;2023-06-22T08:32:33;100806.00;;;
79488;BMP180;68949;53.176;18.088;2023-06-22T08:35:00;100806.80;;;
79488;BMP180;68949;53.176;18.088;2023-06-22T08:37:28;100807.60;;;
79488;BMP180;68949;53.176;18.088;2023-06-22T08:40:00;100807.80;;;
79488;BMP180;68949;53.176;18.088;2023-06-22T08:42:27;100812.20;;;
79488;BMP180;68949;53.176;18.088;2023-06-22T08:44:55;100813.20;;;
79488;BMP180;68949;53.176;18.088;2023-06-22T08:47:22;100810.20;;;
79488;BMP180;68949;53.176;18.088;2023-06-22T08:49:49;100826.60;;;
79488;BMP180;68949;53.176;18.088;2023-06-22T08:52:17;100828.20;;;
79488;BMP180;68949;53.176;18.088;2023-06-22T08:54:45;100813.80;;;
79488;BMP180;68949;53.176;18.088;2023-06-22T08:57:12;100819.40;;;
79488;BMP180;68949;53.176;18.088;2023-06-22T08:59:39;100831.40;;;
79488;BMP180;68949;53.176;18.088;2023-06-22T09:02:06;100825.40;;;
79488;BMP180;68949;53.176;18.088;2023-06-22T09:04:33;100821.80;;;
79488;BMP180;68949;53.176;18.088;2023-06-22T09:07:01;100829.20;;;
79488;BMP180;68949;53.176;18.088;2023-06-22T09:09:29;100826.00;;;
79488;BMP180;68949;53.176;18.088;2023-06-22T09:11:56;100825.40;;;
79488;BMP180;68949;53.176;18.088;2023-06-22T09:14:22;100811.20;;;
79488;BMP180;68949;53.176;18.088;2023-06-22T09:16:49;100800.40;;;
79488;BMP180;68949;53.176;18.088;2023-06-22T09:19:15;100805.40;;;
79488;BMP180;68949;53.176;18.088;2023-06-22T09:21:42;100785.60;;;
79488;BMP180;68949;53.176;18.088;2023-06-22T09:24:09;100791.20;;;
79488;BMP180;68949;53.176;18.088;2023-06-22T09:26:35;100788.20;;;
79488;BMP180;68949;53.176;18.088;2023-06-22T09:29:05;100795.40;;;
79488;BMP180;68949;53.176;18.088;2023-06-22T09:31:32;100791.80;;;
79488;BMP180;68949;53.176;18.088;2023-06-22T09:33:59;100780.40;;;
79488;BMP180;68949;53.176;18.088;2023-06-22T09:36:25;100759.60;;;
79488;BMP180;68949;53.176;18.088;2023-06-22T09:38:52;100763.00;;;
79488;BMP180;68949;53.176;18.088;2023-06-22T09:41:23;100762.80;;;
79488;BMP180;68949;53.176;18.088;2023-06-22T09:43:51;100761.40;;;
79488;BMP180;68949;53.176;18.088;2023-06-22T09:46:18;100776.40;;;
79488;BMP180;68949;53.176;18.088;2023-06-22T09:48:44;100780.80;;;
79488;BMP180;68949;53.176;18.088;2023-06-22T09:51:11;100765.80;;;
79488;BMP180;68949;53.176;18.088;2023-06-22T09:53:38;100750.20;;;
79488;BMP180;68949;53.176;18.088;2023-06-22T09:56:05;100763.80;;;
79488;BMP180;68949;53.176;18.088;2023-06-22T09:58:32;100777.00;;;
79488;BMP180;68949;53.176;18.088;2023-06-22T10:00:59;100760.20;;;
79488;BMP180;68949;53.176;18.088;2023-06-22T10:03:27;100765.60;;;
79488;BMP180;68949;53.176;18.088;2023-06-22T10:05:54;100755.80;;;
79488;BMP180;68949;53.176;18.088;2023-06-22T10:08:20;100761.00;;;
79488;BMP180;68949;53.176;18.088;2023-06-22T10:10:47;100773.40;;;
79488;BMP180;68949;53.176;18.088;2023-06-22T10:13:14;100762.20;;;
79488;BMP180;68949;53.176;18.088;2023-06-22T10:15:41;100764.80;;;
79488;BMP180;68949;53.176;18.088;2023-06-22T10:18:09;100781.80;;;
79488;BMP180;68949;53.176;18.088;2023-06-22T10:20:36;100773.40;;;
79488;BMP180;68949;53.176;18.088;2023-06-22T10:23:03;100764.20;;;
79488;BMP180;68949;53.176;18.088;2023-06-22T10:25:29;100759.80;;;
79488;BMP180;68949;53.176;18.088;2023-06-22T10:27:56;100775.80;;;
79488;BMP180;68949;53.176;18.088;2023-06-22T10:30:24;100770.60;;;
79488;BMP180;68949;53.176;18.088;2023-06-22T10:32:51;100763.40;;;
79488;BMP180;68949;53.176;18.088;2023-06-22T10:35:17;100770.00;;;
79488;BMP180;68949;53.176;18.088;2023-06-22T10:37:46;100756.80;;;
79488;BMP180;68949;53.176;18.088;2023-06-22T10:40:17;100769.20;;;
79488;BMP180;68949;53.176;18.088;2023-06-22T10:42:45;100782.40;;;
79488;BMP180;68949;53.176;18.088;2023-06-22T10:45:13;100778.20;;;
79488;BMP180;68949;53.176;18.088;2023-06-22T10:47:40;100758.20;;;
79488;BMP180;68949;53.176;18.088;2023-06-22T10:50:09;100770.80;;;
79488;BMP180;68949;53.176;18.088;2023-06-22T10:52:36;100766.00;;;
79488;BMP180;68949;53.176;18.088;2023-06-22T10:55:03;100762.00;;;
79488;BMP180;68949;53.176;18.088;2023-06-22T10:57:30;100769.80;;;
79488;BMP180;68949;53.176;18.088;2023-06-22T10:59:57;100768.40;;;
79488;BMP180;68949;53.176;18.088;2023-06-22T11:02:24;100767.80;;;
79488;BMP180;68949;53.176;18.088;2023-06-22T11:04:51;100757.40;;;
79488;BMP180;68949;53.176;18.088;2023-06-22T11:07:18;100744.40;;;
79488;BMP180;68949;53.176;18.088;2023-06-22T11:09:44;100748.80;;;
79488;BMP180;68949;53.176;18.088;2023-06-22T11:12:11;100749.40;;;
79488;BMP180;68949;53.176;18.088;2023-06-22T11:14:39;100752.40;;;
79488;BMP180;68949;53.176;18.088;2023-06-22T11:17:05;100776.00;;;
79488;BMP180;68949;53.176;18.088;2023-06-22T11:19:32;100768.60;;;
79488;BMP180;68949;53.176;18.088;2023-06-22T11:21:59;100753.00;;;
79488;BMP180;68949;53.176;18.088;2023-06-22T11:24:25;100767.60;;;
79488;BMP180;68949;53.176;18.088;2023-06-22T11:26:52;100754.00;;;
79488;BMP180;68949;53.176;18.088;2023-06-22T11:29:19;100768.40;;;
79488;BMP180;68949;53.176;18.088;2023-06-22T11:31:46;100761.20;;;
79488;BMP180;68949;53.176;18.088;2023-06-22T11:34:12;100750.40;;;
79488;BMP180;68949;53.176;18.088;2023-06-22T11:36:40;100749.80;;;
79488;BMP180;68949;53.176;18.088;2023-06-22T11:39:08;100754.80;;;
79488;BMP180;68949;53.176;18.088;2023-06-22T11:41:36;100757.00;;;
79488;BMP180;68949;53.176;18.088;2023-06-22T11:44:03;100738.40;;;
79488;BMP180;68949;53.176;18.088;2023-06-22T11:46:32;100744.00;;;
79488;BMP180;68949;53.176;18.088;2023-06-22T11:48:59;100745.40;;;
79488;BMP180;68949;53.176;18.088;2023-06-22T11:51:25;100753.00;;;
79488;BMP180;68949;53.176;18.088;2023-06-22T11:53:53;100750.40;;;
79488;BMP180;68949;53.176;18.088;2023-06-22T11:56:20;100746.60;;;
79488;BMP180;68949;53.176;18.088;2023-06-22T11:58:47;100730.40;;;
79488;BMP180;68949;53.176;18.088;2023-06-22T12:01:13;100742.20;;;
79488;BMP180;68949;53.176;18.088;2023-06-22T12:03:41;100724.00;;;
79488;BMP180;68949;53.176;18.088;2023-06-22T12:06:10;100750.20;;;
79488;BMP180;68949;53.176;18.088;2023-06-22T12:08:37;100745.40;;;
79488;BMP180;68949;53.176;18.088;2023-06-22T12:11:04;100749.80;;;
79488;BMP180;68949;53.176;18.088;2023-06-22T12:13:31;100732.80;;;
79488;BMP180;68949;53.176;18.088;2023-06-22T12:15:57;100738.80;;;
79488;BMP180;68949;53.176;18.088;2023-06-22T12:18:24;100729.00;;;
79488;BMP180;68949;53.176;18.088;2023-06-22T12:20:51;100719.20;;;
79488;BMP180;68949;53.176;18.088;2023-06-22T12:23:17;100717.00;;;
79488;BMP180;68949;53.176;18.088;2023-06-22T12:25:45;100725.20;;;
79488;BMP180;68949;53.176;18.088;2023-06-22T12:28:12;100737.80;;;
79488;BMP180;68949;53.176;18.088;2023-06-22T12:30:39;100722.60;;;
79488;BMP180;68949;53.176;18.088;2023-06-22T12:33:05;100723.20;;;
79488;BMP180;68949;53.176;18.088;2023-06-22T12:35:32;100720.80;;;
79488;BMP180;68949;53.176;18.088;2023-06-22T12:37:59;100714.60;;;
79488;BMP180;68949;53.176;18.088;2023-06-22T12:40:25;100714.80;;;
79488;BMP180;68949;53.176;18.088;2023-06-22T12:42:52;100700.80;;;
79488;BMP180;68949;53.176;18.088;2023-06-22T12:45:19;100709.20;;;
79488;BMP180;68949;53.176;18.088;2023-06-22T12:47:47;100709.80;;;
79488;BMP180;68949;53.176;18.088;2023-06-22T12:50:16;100708.20;;;
79488;BMP180;68949;53.176;18.088;2023-06-22T12:52:43;100689.20;;;
79488;BMP180;68949;53.176;18.088;2023-06-22T12:55:09;100702.00;;;
79488;BMP180;68949;53.176;18.088;2023-06-22T12:57:36;100680.40;;;
79488;BMP180;68949;53.176;18.088;2023-06-22T13:00:04;100697.20;;;
79488;BMP180;68949;53.176;18.088;2023-06-22T13:02:31;100676.40;;;
79488;BMP180;68949;53.176;18.088;2023-06-22T13:04:58;100686.80;;;
79488;BMP180;68949;53.176;18.088;2023-06-22T13:07:25;100693.00;;;
79488;BMP180;68949;53.176;18.088;2023-06-22T13:09:52;100689.80;;;
79488;BMP180;68949;53.176;18.088;2023-06-22T13:12:20;100679.60;;;
79488;BMP180;68949;53.176;18.088;2023-06-22T13:14:47;100687.00;;;
79488;BMP180;68949;53.176;18.088;2023-06-22T13:17:15;100696.60;;;
79488;BMP180;68949;53.176;18.088;2023-06-22T13:19:42;100691.60;;;
79488;BMP180;68949;53.176;18.088;2023-06-22T13:22:30;100674.60;;;
79488;BMP180;68949;53.176;18.088;2023-06-22T13:24:59;100681.40;;;
79488;BMP180;68949;53.176;18.088;2023-06-22T13:27:25;100676.80;;;
79488;BMP180;68949;53.176;18.088;2023-06-22T13:29:53;100678.80;;;
79488;BMP180;68949;53.176;18.088;2023-06-22T13:32:19;100684.00;;;
79488;BMP180;68949;53.176;18.088;2023-06-22T13:34:46;100683.60;;;
79488;BMP180;68949;53.176;18.088;2023-06-22T13:37:13;100675.40;;;
79488;BMP180;68949;53.176;18.088;2023-06-22T13:39:40;100680.00;;;
79488;BMP180;68949;53.176;18.088;2023-06-22T13:42:07;100668.60;;;
79488;BMP180;68949;53.176;18.088;2023-06-22T13:44:33;100671.00;;;
79488;BMP180;68949;53.176;18.088;2023-06-22T13:47:00;100667.00;;;
79488;BMP180;68949;53.176;18.088;2023-06-22T13:49:27;100673.80;;;
79488;BMP180;68949;53.176;18.088;2023-06-22T13:51:54;100659.80;;;
79488;BMP180;68949;53.176;18.088;2023-06-22T13:54:21;100663.80;;;
79488;BMP180;68949;53.176;18.088;2023-06-22T13:56:48;100663.00;;;
79488;BMP180;68949;53.176;18.088;2023-06-22T13:59:14;100662.80;;;
79488;BMP180;68949;53.176;18.088;2023-06-22T14:01:41;100655.40;;;
79488;BMP180;68949;53.176;18.088;2023-06-22T14:04:10;100638.00;;;
79488;BMP180;68949;53.176;18.088;2023-06-22T14:06:38;100645.80;;;
79488;BMP180;68949;53.176;18.088;2023-06-22T14:09:04;100650.80;;;
79488;BMP180;68949;53.176;18.088;2023-06-22T14:11:31;100636.40;;;
79488;BMP180;68949;53.176;18.088;2023-06-22T14:13:58;100628.20;;;
79488;BMP180;68949;53.176;18.088;2023-06-22T14:16:24;100631.60;;;
79488;BMP180;68949;53.176;18.088;2023-06-22T14:18:51;100640.00;;;
79488;BMP180;68949;53.176;18.088;2023-06-22T14:21:18;100638.20;;;
79488;BMP180;68949;53.176;18.088;2023-06-22T14:23:45;100629.20;;;
79488;BMP180;68949;53.176;18.088;2023-06-22T14:26:16;100632.00;;;
79488;BMP180;68949;53.176;18.088;2023-06-22T14:28:48;100631.20;;;
79488;BMP180;68949;53.176;18.088;2023-06-22T14:31:18;100636.80;;;
79488;BMP180;68949;53.176;18.088;2023-06-22T14:33:47;100649.80;;;
79488;BMP180;68949;53.176;18.088;2023-06-22T14:36:17;100651.00;;;
79488;BMP180;68949;53.176;18.088;2023-06-22T14:38:44;100649.20;;;
79488;BMP180;68949;53.176;18.088;2023-06-22T14:41:11;100640.40;;;
79488;BMP180;68949;53.176;18.088;2023-06-22T14:43:37;100623.60;;;
79488;BMP180;68949;53.176;18.088;2023-06-22T14:46:04;100650.00;;;
79488;BMP180;68949;53.176;18.088;2023-06-22T14:48:31;100636.60;;;
79488;BMP180;68949;53.176;18.088;2023-06-22T14:50:57;100649.60;;;
79488;BMP180;68949;53.176;18.088;2023-06-22T14:53:24;100631.80;;;
79488;BMP180;68949;53.176;18.088;2023-06-22T14:55:51;100643.00;;;
79488;BMP180;68949;53.176;18.088;2023-06-22T14:58:17;100633.80;;;